Time;durP1;ratioP1;P1;durP2;ratioP2;P2;SDS_P1;SDS_P2;PMS_P1;PMS_P2;Temp;Humidity;BMP_temperature;BMP_pressure;BME280_temperature;BME280_humidity;BME280_pressure;Samples;Min_cycle;Max_cycle;Signal;HPM_P1;HPM_P2
2022/01/02 00:02:15;;;;;;;;;22.00;21.25;;;;;12.04;67.84;101797.56;4888790;28;50494;-62
2022/01/02 00:04:47;;;;;;;;;27.50;24.00;;;;;12.13;67.75;101796.97;4892074;29;49805;-62
2022/01/02 00:07:15;;;;;;;;;22.50;22.00;;;;;11.91;67.66;101761.19;4892706;28;49835;-62
2022/01/02 00:09:45;;;;;;;;;25.50;23.50;;;;;11.95;67.93;101767.44;4891651;28;49750;-62
2022/01/02 00:12:13;;;;;;;;;24.75;22.00;;;;;12.18;67.75;101812.91;4891463;28;50765;-61
2022/01/02 00:14:45;;;;;;;;;23.00;21.00;;;;;12.20;67.78;101812.09;4886482;29;50006;-62
2022/01/02 00:17:12;;;;;;;;;24.25;22.75;;;;;12.01;68.18;101773.78;4886601;29;49871;-61
2022/01/02 00:19:45;;;;;;;;;26.25;21.75;;;;;12.20;67.98;101804.22;4891374;29;49585;-74
2022/01/02 00:22:16;;;;;;;;;33.75;26.00;;;;;12.15;67.67;101800.53;4890585;29;50564;-62
2022/01/02 00:24:43;;;;;;;;;26.25;23.00;;;;;12.22;67.51;101793.72;4890113;28;50073;-62
2022/01/02 00:27:10;;;;;;;;;27.50;27.50;;;;;12.24;67.51;101794.66;4884262;28;49742;-61
2022/01/02 00:29:40;;;;;;;;;24.00;22.00;;;;;12.25;67.56;101784.16;4894703;29;49740;-62
2022/01/02 00:32:07;;;;;;;;;29.50;25.75;;;;;12.26;67.13;101787.72;4895758;28;50098;-62
2022/01/02 00:34:37;;;;;;;;;22.00;22.00;;;;;12.18;67.48;101783.97;4895745;28;49630;-62
2022/01/02 00:37:04;;;;;;;;;27.25;24.00;;;;;12.24;67.28;101785.00;4895922;28;50061;-61
2022/01/02 00:39:29;;;;;;;;;27.00;23.50;;;;;12.20;67.07;101777.00;4895997;28;49861;-61
2022/01/02 00:41:58;;;;;;;;;28.00;26.50;;;;;12.24;67.01;101782.38;4895408;29;50432;-61
2022/01/02 00:44:23;;;;;;;;;23.25;23.00;;;;;12.27;66.99;101794.78;4895793;29;49943;-62
2022/01/02 00:46:53;;;;;;;;;21.50;20.75;;;;;12.26;66.73;101791.25;4895922;28;49874;-62
2022/01/02 00:49:24;;;;;;;;;26.50;22.25;;;;;12.26;67.14;101791.25;4896001;28;49978;-62
2022/01/02 00:51:58;;;;;;;;;30.00;26.25;;;;;12.26;67.43;101788.63;4895053;28;49819;-68
2022/01/02 00:54:28;;;;;;;;;24.00;23.50;;;;;12.15;67.55;101760.16;4894822;28;50136;-63
2022/01/02 00:57:01;;;;;;;;;26.25;24.25;;;;;12.26;67.28;101783.34;4893475;29;49859;-70
2022/01/02 00:59:28;;;;;;;;;31.50;28.25;;;;;12.24;67.25;101774.47;4889468;29;49728;-62
2022/01/02 01:02:03;;;;;;;;;27.00;25.00;;;;;12.03;67.18;101737.00;4894051;28;50550;-62
2022/01/02 01:04:31;;;;;;;;;26.00;26.00;;;;;12.25;67.55;101764.84;4895595;28;49915;-62
2022/01/02 01:07:03;;;;;;;;;31.00;24.75;;;;;12.22;67.06;101755.13;4895687;28;49635;-61
2022/01/02 01:09:30;;;;;;;;;24.00;23.50;;;;;11.86;67.14;101696.09;4895786;28;49583;-62
2022/01/02 01:11:58;;;;;;;;;26.75;23.75;;;;;12.02;67.18;101722.94;4894442;29;49831;-62
2022/01/02 01:14:24;;;;;;;;;37.50;31.00;;;;;12.08;67.56;101724.88;4895122;28;49980;-61
2022/01/02 01:16:50;;;;;;;;;25.00;23.75;;;;;12.23;67.33;101730.59;4895264;28;49714;-61
2022/01/02 01:19:16;;;;;;;;;26.50;25.00;;;;;12.19;67.28;101714.66;4895514;28;49764;-62
2022/01/02 01:21:41;;;;;;;;;23.50;23.25;;;;;12.17;67.18;101724.25;4893853;29;50344;-62
2022/01/02 01:24:06;;;;;;;;;32.25;27.25;;;;;11.90;67.27;101677.84;4895199;28;49669;-62
2022/01/02 01:26:32;;;;;;;;;81.25;59.50;;;;;12.15;67.27;101704.88;4894837;28;49928;-62
2022/01/02 01:28:57;;;;;;;;;87.00;65.75;;;;;12.23;67.79;101717.41;4895192;28;49647;-63
2022/01/02 01:31:22;;;;;;;;;50.00;38.50;;;;;11.79;67.12;101654.66;4894651;28;49874;-61
2022/01/02 01:33:48;;;;;;;;;32.50;30.25;;;;;12.26;67.32;101722.78;4894854;28;50459;-63
2022/01/02 01:36:16;;;;;;;;;45.50;37.75;;;;;12.26;67.53;101711.38;4895105;28;49743;-62
2022/01/02 01:38:41;;;;;;;;;30.00;25.25;;;;;12.09;67.27;101683.66;4895283;28;49773;-62
2022/01/02 01:41:14;;;;;;;;;27.75;27.75;;;;;12.08;67.34;101689.78;4894612;29;49784;-61
2022/01/02 01:43:53;;;;;;;;;35.50;33.25;;;;;11.96;67.15;101670.13;4894821;28;49770;-62
2022/01/02 01:46:18;;;;;;;;;48.75;40.25;;;;;12.15;67.36;101695.22;4894928;29;49995;-61
2022/01/02 01:48:55;;;;;;;;;34.00;32.50;;;;;12.13;67.63;101696.94;4894927;29;49908;-61
2022/01/02 01:51:21;;;;;;;;;30.75;28.00;;;;;12.21;67.01;101699.81;4894740;28;50031;-61
2022/01/02 01:53:47;;;;;;;;;36.50;33.50;;;;;12.19;67.07;101688.34;4894629;28;49751;-62
2022/01/02 01:56:12;;;;;;;;;26.50;26.50;;;;;11.72;67.42;101606.25;4894387;28;49827;-61
2022/01/02 01:58:37;;;;;;;;;26.75;24.50;;;;;11.94;67.28;101645.50;4895225;28;49804;-61
2022/01/02 02:01:03;;;;;;;;;33.00;30.25;;;;;12.07;67.01;101666.94;4894376;28;50075;-62
2022/01/02 02:03:28;;;;;;;;;33.00;32.50;;;;;12.02;67.13;101646.63;4894686;28;49897;-61
2022/01/02 02:05:54;;;;;;;;;38.00;35.25;;;;;12.23;67.33;101677.94;4894500;28;49787;-61
2022/01/02 02:08:24;;;;;;;;;31.25;26.50;;;;;12.25;67.30;101683.22;4894692;28;49767;-62
2022/01/02 02:10:55;;;;;;;;;23.75;21.50;;;;;12.01;66.82;101644.84;4894012;28;49873;-61
2022/01/02 02:13:20;;;;;;;;;19.00;18.00;;;;;12.18;66.53;101670.78;4894539;28;50062;-61
2022/01/02 02:15:46;;;;;;;;;19.75;18.25;;;;;12.20;66.81;101672.59;4877190;29;50374;-61
2022/01/02 02:18:11;;;;;;;;;19.00;16.00;;;;;12.22;66.53;101667.38;4894679;29;49629;-61
2022/01/02 02:20:37;;;;;;;;;17.00;17.00;;;;;12.23;66.50;101655.97;4894309;29;50013;-62
2022/01/02 02:23:03;;;;;;;;;17.75;16.75;;;;;12.24;66.43;101658.66;4893543;28;49896;-62
2022/01/02 02:25:34;;;;;;;;;18.75;17.50;;;;;12.06;66.09;101615.13;4894021;29;49961;-61
2022/01/02 02:28:09;;;;;;;;;16.00;13.75;;;;;12.15;66.24;101632.06;4894319;28;49860;-62
2022/01/02 02:30:37;;;;;;;;;12.00;12.00;;;;;12.21;65.83;101636.63;4894018;28;49908;-62
2022/01/02 02:33:04;;;;;;;;;26.00;24.25;;;;;12.18;66.31;101633.91;4894257;29;49980;-61
2022/01/02 02:35:32;;;;;;;;;20.00;18.00;;;;;12.21;66.46;101634.00;4894124;28;49938;-61
2022/01/02 02:37:58;;;;;;;;;31.75;29.50;;;;;12.17;66.30;101630.41;4894101;28;49926;-61
2022/01/02 02:40:26;;;;;;;;;21.75;18.50;;;;;12.19;66.67;101623.44;4893609;28;49665;-61
2022/01/02 02:51:11;;;;;;;;;24.00;20.50;;;;;12.16;66.82;101601.38;4893792;29;49743;-61
2022/01/02 02:53:40;;;;;;;;;38.50;35.00;;;;;12.14;66.54;101595.19;4893847;28;49988;-61
2022/01/02 02:56:16;;;;;;;;;19.00;18.25;;;;;12.14;66.21;101592.53;4893438;28;49847;-61
2022/01/02 02:58:41;;;;;;;;;25.75;23.25;;;;;12.13;66.80;101586.38;4893994;29;49973;-61
2022/01/02 03:01:12;;;;;;;;;22.00;22.00;;;;;12.11;66.56;101581.94;4893418;29;49807;-64
2022/01/02 03:03:38;;;;;;;;;19.25;19.25;;;;;12.19;66.36;101590.94;4893751;28;50003;-64
2022/01/02 03:06:05;;;;;;;;;14.25;14.25;;;;;11.97;66.51;101557.88;4893820;28;49850;-62
2022/01/02 03:08:32;;;;;;;;;19.50;18.00;;;;;11.82;66.42;101554.81;4893933;28;49573;-62
2022/01/02 03:10:57;;;;;;;;;19.00;18.00;;;;;12.23;66.76;101603.31;4893381;28;49827;-62
2022/01/02 03:13:23;;;;;;;;;20.00;18.75;;;;;11.97;66.83;101548.25;4893542;29;49685;-62
2022/01/02 03:15:49;;;;;;;;;22.00;20.25;;;;;12.24;66.62;101584.94;4893552;28;49674;-62
2022/01/02 03:18:14;;;;;;;;;24.25;19.75;;;;;12.23;66.76;101598.94;4892237;29;50100;-62
2022/01/02 03:20:40;;;;;;;;;19.50;18.50;;;;;11.97;66.60;101550.00;4893198;28;50457;-62
2022/01/02 03:23:05;;;;;;;;;20.25;18.25;;;;;12.20;66.57;101601.50;4893387;29;49863;-62
2022/01/02 03:25:30;;;;;;;;;20.75;19.50;;;;;12.23;67.01;101598.94;4893415;28;49834;-62
2022/01/02 03:27:56;;;;;;;;;18.50;18.00;;;;;12.03;66.58;101579.09;4893544;29;49687;-62
2022/01/02 03:30:21;;;;;;;;;17.25;17.00;;;;;12.26;66.75;101621.88;4893133;28;49853;-62
2022/01/02 03:32:46;;;;;;;;;13.75;13.75;;;;;12.30;66.51;101615.81;4893404;29;49868;-62
2022/01/02 03:35:12;;;;;;;;;17.50;17.50;;;;;12.13;66.59;101574.97;4897179;28;49681;-62
2022/01/02 03:37:37;;;;;;;;;27.25;24.00;;;;;11.90;66.09;101540.16;4899785;29;50042;-62
2022/01/02 03:40:06;;;;;;;;;15.00;15.00;;;;;12.32;66.95;101619.38;4899098;28;50490;-61
2022/01/02 03:42:32;;;;;;;;;14.00;14.00;;;;;12.29;66.33;101609.66;4899532;28;50046;-62
2022/01/02 03:44:58;;;;;;;;;20.25;19.00;;;;;12.34;66.67;101604.50;4899481;28;49788;-62
2022/01/02 03:47:24;;;;;;;;;20.00;17.25;;;;;12.36;66.56;101594.94;4899695;28;50019;-61
2022/01/02 03:49:50;;;;;;;;;19.50;14.75;;;;;12.36;65.77;101600.19;4899363;28;50508;-62
2022/01/02 03:52:15;;;;;;;;;13.75;13.50;;;;;12.38;66.59;101580.06;4899425;29;49873;-62
2022/01/02 03:54:41;;;;;;;;;13.00;11.75;;;;;12.06;65.59;101502.84;4899532;28;49864;-63
2022/01/02 03:57:06;;;;;;;;;17.25;15.00;;;;;12.38;65.82;101585.31;4899219;28;49921;-62
2022/01/02 03:59:31;;;;;;;;;14.25;14.25;;;;;12.19;65.44;101528.66;4899188;28;50403;-62
2022/01/02 04:01:57;;;;;;;;;19.25;16.75;;;;;12.29;66.38;101541.22;4899964;28;49962;-62
2022/01/02 04:04:22;;;;;;;;;16.75;14.75;;;;;12.17;64.79;101533.00;4898071;28;49912;-62
2022/01/02 04:06:47;;;;;;;;;17.25;16.00;;;;;12.46;64.87;101565.34;4899602;28;49927;-66
2022/01/02 04:09:13;;;;;;;;;14.75;14.75;;;;;12.22;64.69;101512.94;4899214;28;50444;-62
2022/01/02 04:11:38;;;;;;;;;12.75;12.75;;;;;12.51;64.27;101568.09;4898803;29;49831;-62
2022/01/02 04:14:04;;;;;;;;;16.25;12.25;;;;;12.03;64.47;101492.25;4899446;28;49836;-62
2022/01/02 04:16:30;;;;;;;;;14.00;12.25;;;;;12.36;63.95;101536.13;4899312;28;49581;-61
2022/01/02 04:18:55;;;;;;;;;14.50;12.25;;;;;12.51;64.26;101547.03;4898970;29;50700;-62
2022/01/02 04:21:20;;;;;;;;;13.25;13.25;;;;;12.56;64.09;101554.19;4899114;28;50532;-62
2022/01/02 04:23:46;;;;;;;;;15.50;15.50;;;;;12.36;63.68;101520.31;4899255;28;49629;-61
2022/01/02 04:26:11;;;;;;;;;20.75;15.25;;;;;12.51;63.91;101549.66;4899078;28;49697;-62
2022/01/02 04:28:36;;;;;;;;;18.50;15.25;;;;;12.59;63.89;101562.16;4898927;28;49872;-61
2022/01/02 04:31:02;;;;;;;;;14.00;14.00;;;;;12.45;63.81;101531.97;4894964;29;49809;-61
2022/01/02 04:33:27;;;;;;;;;13.75;13.00;;;;;12.60;63.44;101550.78;4880863;28;49828;-61
2022/01/02 04:35:52;;;;;;;;;16.25;15.00;;;;;12.59;63.70;101537.56;4885309;29;49718;-65
2022/01/02 04:38:18;;;;;;;;;16.75;14.75;;;;;12.58;63.63;101507.72;4896817;29;51491;-63
2022/01/02 04:40:44;;;;;;;;;18.25;15.50;;;;;12.61;63.48;101509.53;4891965;28;49822;-72
2022/01/02 04:43:09;;;;;;;;;18.25;16.75;;;;;12.49;63.23;101496.94;4894997;28;50026;-77
2022/01/02 04:45:35;;;;;;;;;14.50;14.50;;;;;12.45;62.93;101494.19;4895773;28;49950;-63
2022/01/02 04:48:00;;;;;;;;;12.00;12.00;;;;;12.60;63.43;101521.81;4877815;29;50617;-72
2022/01/02 04:50:26;;;;;;;;;18.75;17.50;;;;;12.64;63.35;101535.03;4892665;29;49787;-61
2022/01/02 04:52:52;;;;;;;;;14.75;13.50;;;;;12.46;63.57;101482.84;4895684;28;49784;-61
2022/01/02 04:55:17;;;;;;;;;13.25;13.25;;;;;12.59;63.84;101492.81;4894237;29;49817;-62
2022/01/02 04:57:43;;;;;;;;;18.50;15.75;;;;;12.53;63.29;101482.09;4894238;29;50610;-61
2022/01/02 05:00:09;;;;;;;;;15.75;12.25;;;;;12.60;63.00;101474.41;4877521;29;49788;-61
2022/01/02 05:02:34;;;;;;;;;12.75;12.75;;;;;12.51;63.43;101465.38;4877557;29;50036;-61
2022/01/02 05:04:59;;;;;;;;;17.00;17.00;;;;;12.60;63.40;101455.97;4877794;29;50084;-61
2022/01/02 05:07:25;;;;;;;;;14.25;14.25;;;;;12.59;63.37;101475.25;4877145;29;50528;-61
2022/01/02 05:09:50;;;;;;;;;15.00;13.50;;;;;12.61;62.73;101465.63;4877139;29;50031;-61
2022/01/02 05:12:16;;;;;;;;;11.00;9.50;;;;;12.59;62.85;101501.59;4877278;29;49621;-61
2022/01/02 05:14:41;;;;;;;;;13.00;12.25;;;;;12.42;63.08;101458.16;4895981;28;49903;-61
2022/01/02 05:17:07;;;;;;;;;12.00;9.75;;;;;12.61;62.67;101507.78;4895120;28;49642;-61
2022/01/02 05:19:32;;;;;;;;;12.75;11.25;;;;;12.41;62.83;101484.44;4895286;29;49773;-61
2022/01/02 05:21:58;;;;;;;;;11.50;11.50;;;;;12.10;62.68;101409.97;4895405;28;49788;-61
2022/01/02 05:24:23;;;;;;;;;11.75;11.75;;;;;12.56;63.40;101501.53;4895239;28;49956;-61
2022/01/02 05:26:50;;;;;;;;;12.25;11.25;;;;;12.65;63.03;101503.50;4894763;29;49676;-62
2022/01/02 05:29:16;;;;;;;;;14.50;11.00;;;;;12.67;62.98;101490.34;4894919;28;50999;-62
2022/01/02 05:31:41;;;;;;;;;11.50;11.50;;;;;12.64;62.16;101491.16;4894919;28;49814;-61
2022/01/02 05:34:07;;;;;;;;;12.00;11.00;;;;;12.70;62.60;101500.97;4894886;29;49620;-62
2022/01/02 05:36:32;;;;;;;;;13.75;12.75;;;;;12.64;63.06;101485.88;4876789;29;51286;-62
2022/01/02 05:38:58;;;;;;;;;12.25;12.00;;;;;12.72;62.95;101493.97;4878724;29;49754;-62
2022/01/02 05:41:23;;;;;;;;;16.00;13.75;;;;;12.56;62.63;101463.75;4876707;29;49729;-61
2022/01/02 05:43:48;;;;;;;;;12.50;12.50;;;;;12.72;62.54;101476.41;4878271;29;50051;-61
2022/01/02 05:46:15;;;;;;;;;11.75;11.75;;;;;12.50;62.72;101439.91;4888564;29;50463;-61
2022/01/02 05:48:40;;;;;;;;;12.00;11.00;;;;;12.50;62.66;101448.69;4876797;29;49876;-62
2022/01/02 05:51:06;;;;;;;;;9.50;7.75;;;;;12.70;62.61;101482.53;4884212;29;49625;-61
2022/01/02 05:53:31;;;;;;;;;11.25;11.25;;;;;12.48;62.84;101436.34;4883277;29;50015;-62
2022/01/02 05:55:57;;;;;;;;;11.50;9.00;;;;;12.76;62.77;101487.94;4896371;29;50461;-61
2022/01/02 05:58:22;;;;;;;;;14.25;13.50;;;;;12.58;62.75;101455.03;4888019;28;49586;-63
2022/01/02 06:00:48;;;;;;;;;14.25;13.00;;;;;12.76;63.03;101490.56;4876534;29;49769;-61
2022/01/02 06:03:13;;;;;;;;;10.25;10.25;;;;;12.68;62.45;101478.97;4876538;29;49961;-62
2022/01/02 06:05:38;;;;;;;;;15.25;13.00;;;;;12.72;62.70;101480.81;4874840;29;51998;-67
2022/01/02 06:08:04;;;;;;;;;10.00;10.00;;;;;12.62;62.33;101471.78;4876493;29;49782;-61
2022/01/02 06:10:29;;;;;;;;;11.75;11.75;;;;;12.75;62.47;101489.69;4881628;29;49761;-61
2022/01/02 06:12:54;;;;;;;;;13.00;11.25;;;;;12.77;62.58;101487.09;4894635;28;49821;-61
2022/01/02 06:15:20;;;;;;;;;11.25;10.25;;;;;12.69;62.74;101464.94;4894295;28;49883;-61
2022/01/02 06:17:45;;;;;;;;;11.50;11.00;;;;;12.80;62.44;101482.75;4894283;29;49606;-61
2022/01/02 06:20:10;;;;;;;;;13.25;12.25;;;;;12.76;62.32;101469.50;4894184;29;49728;-64
2022/01/02 06:22:36;;;;;;;;;13.75;12.00;;;;;12.83;62.06;101485.47;4894449;28;49797;-61
2022/01/02 06:25:02;;;;;;;;;12.25;9.75;;;;;12.85;62.57;101481.13;4894059;28;50360;-61
2022/01/02 06:27:28;;;;;;;;;10.25;10.25;;;;;12.86;62.50;101482.91;4894310;28;49895;-61
2022/01/02 06:29:53;;;;;;;;;10.75;10.75;;;;;12.88;62.62;101477.69;4894053;29;49683;-61
2022/01/02 06:32:18;;;;;;;;;11.50;9.00;;;;;12.88;62.66;101485.59;4894540;28;49885;-62
2022/01/02 06:34:46;;;;;;;;;10.00;9.00;;;;;12.74;62.53;101472.09;4894098;28;49982;-61
2022/01/02 06:37:11;;;;;;;;;10.25;8.25;;;;;12.87;62.21;101515.44;4894164;28;49715;-61
2022/01/02 06:39:36;;;;;;;;;14.50;11.75;;;;;12.71;62.50;101500.09;4894020;28;50407;-61
2022/01/02 06:42:02;;;;;;;;;13.50;10.25;;;;;12.71;62.68;101502.72;4894101;29;49724;-63
2022/01/02 06:44:27;;;;;;;;;11.25;10.25;;;;;12.83;62.52;101522.34;4894139;29;50932;-61
2022/01/02 06:46:52;;;;;;;;;14.25;10.50;;;;;12.84;62.71;101512.72;4890075;28;49816;-61
2022/01/02 06:49:18;;;;;;;;;11.00;9.50;;;;;12.82;62.72;101511.78;4876104;29;49692;-62
2022/01/02 06:51:43;;;;;;;;;9.50;9.50;;;;;12.74;62.84;101515.97;4875932;29;49824;-62
2022/01/02 06:54:09;;;;;;;;;11.00;11.00;;;;;12.51;62.81;101475.91;4878180;29;49945;-62
2022/01/02 06:56:34;;;;;;;;;11.00;10.00;;;;;12.73;62.51;101532.63;4877341;28;49806;-61
2022/01/02 06:58:59;;;;;;;;;6.75;6.75;;;;;12.70;62.52;101527.31;4880565;29;50144;-61
2022/01/02 07:01:25;;;;;;;;;9.25;9.25;;;;;12.67;63.02;101535.13;4875951;29;50105;-61
2022/01/02 07:03:50;;;;;;;;;12.75;9.75;;;;;12.58;62.95;101528.78;4875389;29;49715;-61
2022/01/02 07:06:15;;;;;;;;;10.25;9.75;;;;;12.56;63.03;101532.25;4887177;29;50638;-62
2022/01/02 07:08:41;;;;;;;;;12.25;10.25;;;;;12.57;63.55;101534.91;4876981;29;50521;-62
2022/01/02 07:11:08;;;;;;;;;14.75;13.00;;;;;12.46;63.71;101514.44;4879645;29;50049;-62
2022/01/02 07:13:34;;;;;;;;;11.50;11.50;;;;;12.46;63.32;101496.88;4893486;28;49795;-62
2022/01/02 07:15:59;;;;;;;;;10.50;10.25;;;;;12.61;63.76;101518.31;4893457;29;49682;-62
2022/01/02 07:18:25;;;;;;;;;13.50;11.75;;;;;12.61;63.62;101518.31;4893520;28;49913;-61
2022/01/02 07:20:50;;;;;;;;;13.50;11.25;;;;;12.46;63.75;101496.88;4893669;29;49694;-61
2022/01/02 07:23:15;;;;;;;;;14.00;13.50;;;;;12.50;63.53;101506.63;4889331;28;50991;-64
2022/01/02 07:25:41;;;;;;;;;11.00;9.75;;;;;12.48;63.81;101500.44;4875421;29;49724;-62
2022/01/02 07:28:06;;;;;;;;;12.50;12.50;;;;;12.57;64.15;101500.66;4875642;29;50209;-62
2022/01/02 07:30:32;;;;;;;;;12.25;11.00;;;;;12.65;64.13;101536.84;4875459;29;49793;-62
2022/01/02 07:33:02;;;;;;;;;9.50;9.50;;;;;12.61;64.18;101517.44;4875299;29;49813;-61
2022/01/02 07:35:30;;;;;;;;;16.00;11.50;;;;;12.48;63.91;101504.81;4875232;29;49792;-63
2022/01/02 07:37:57;;;;;;;;;16.25;13.00;;;;;12.60;64.14;101520.91;4875156;29;49752;-61
2022/01/02 07:40:24;;;;;;;;;13.00;13.00;;;;;11.38;63.68;101302.88;4875246;29;49567;-61
2022/01/02 07:42:49;;;;;;;;;11.75;11.75;;;;;12.45;63.84;101486.28;4875178;29;49812;-61
2022/01/02 07:45:15;;;;;;;;;9.50;9.50;;;;;12.60;64.39;101518.28;4875679;29;49989;-62
2022/01/02 07:47:41;;;;;;;;;9.25;9.25;;;;;12.41;64.55;101502.88;4875155;29;49760;-63
2022/01/02 07:50:07;;;;;;;;;12.75;10.75;;;;;12.52;64.46;101533.88;4875175;29;49631;-62
2022/01/02 07:52:32;;;;;;;;;11.75;11.75;;;;;12.36;64.41;101512.41;4880682;29;49836;-62
2022/01/02 07:54:57;;;;;;;;;9.75;9.25;;;;;12.40;64.85;101543.22;4874650;29;49797;-62
2022/01/02 07:57:23;;;;;;;;;11.50;11.50;;;;;12.41;65.08;101550.28;4875273;29;50013;-61
2022/01/02 07:59:48;;;;;;;;;14.50;12.75;;;;;12.37;65.00;101562.47;4879850;29;49823;-62
2022/01/02 08:02:14;;;;;;;;;10.50;10.50;;;;;12.17;65.93;101532.13;4893002;28;50121;-62
2022/01/02 08:04:39;;;;;;;;;10.75;10.75;;;;;12.36;65.49;101576.50;4893095;28;49962;-62
2022/01/02 08:07:05;;;;;;;;;11.75;11.25;;;;;11.97;65.80;101521.94;4892965;28;49977;-62
2022/01/02 08:09:30;;;;;;;;;16.00;13.25;;;;;12.33;65.66;101593.09;4892764;28;49827;-62
2022/01/02 08:11:55;;;;;;;;;13.25;12.75;;;;;12.27;66.06;101589.41;4892428;28;50386;-62
2022/01/02 08:14:21;;;;;;;;;11.50;11.00;;;;;12.17;66.10;101580.38;4888014;29;49886;-62
2022/01/02 08:16:47;;;;;;;;;11.50;10.00;;;;;12.05;66.35;101553.69;4875090;29;49750;-63
2022/01/02 08:19:13;;;;;;;;;14.50;14.50;;;;;12.26;66.62;101598.16;4884766;29;49984;-63
2022/01/02 08:21:39;;;;;;;;;13.00;11.50;;;;;12.23;66.57;101604.22;4894730;29;50568;-64
2022/01/02 08:24:05;;;;;;;;;12.25;11.25;;;;;12.23;66.91;101611.22;4896401;28;49639;-63
2022/01/02 08:26:31;;;;;;;;;8.50;8.50;;;;;12.03;66.90;101584.34;4895792;28;49764;-63
2022/01/02 08:29:00;;;;;;;;;12.00;11.00;;;;;11.96;67.08;101564.88;4895907;29;49735;-62
2022/01/02 08:31:29;;;;;;;;;12.75;12.75;;;;;12.21;67.33;101611.19;4885675;28;50060;-64
2022/01/02 08:33:55;;;;;;;;;12.75;11.75;;;;;12.09;67.46;101592.44;4876046;29;50057;-65
2022/01/02 08:36:20;;;;;;;;;15.25;11.25;;;;;12.05;67.78;101574.75;4892899;29;50013;-62
2022/01/02 08:38:47;;;;;;;;;11.00;11.00;;;;;12.09;68.27;101583.66;4894620;28;49926;-62
2022/01/02 08:41:14;;;;;;;;;12.25;12.25;;;;;12.15;68.21;101595.22;4894908;28;50884;-62
2022/01/02 08:43:39;;;;;;;;;9.25;9.25;;;;;12.06;68.56;101580.91;4895308;28;49764;-62
2022/01/02 08:46:05;;;;;;;;;16.50;12.00;;;;;12.25;68.34;101614.78;4895037;28;50098;-62
2022/01/02 08:48:30;;;;;;;;;10.25;10.25;;;;;12.28;68.42;101614.88;4895527;28;49942;-62
2022/01/02 08:50:56;;;;;;;;;12.25;12.25;;;;;12.29;68.23;101609.66;4895347;28;50972;-62
2022/01/02 08:53:21;;;;;;;;;14.50;13.00;;;;;12.18;68.15;101599.69;4895747;28;49510;-62
2022/01/02 08:55:46;;;;;;;;;10.00;9.25;;;;;12.32;68.52;101611.47;4895655;28;49646;-62
2022/01/02 08:58:12;;;;;;;;;11.00;10.75;;;;;12.32;68.63;101616.75;4895912;28;49780;-62
2022/01/02 09:00:37;;;;;;;;;10.50;10.50;;;;;12.16;68.56;101602.28;4895308;28;52717;-72
2022/01/02 09:03:03;;;;;;;;;15.50;15.50;;;;;12.27;68.95;101616.63;4893964;29;50053;-63
2022/01/02 09:05:29;;;;;;;;;11.50;10.50;;;;;12.39;69.06;101641.50;4909994;28;49623;-63
2022/01/02 09:07:55;;;;;;;;;9.75;8.50;;;;;12.27;68.63;101618.38;4895866;28;49785;-62
2022/01/02 09:10:21;;;;;;;;;10.00;10.00;;;;;12.29;68.73;101620.19;4895229;29;50636;-62
2022/01/02 09:12:47;;;;;;;;;12.00;11.00;;;;;12.35;69.11;101629.97;4895639;29;50583;-62
2022/01/02 09:15:12;;;;;;;;;14.00;12.50;;;;;12.41;69.20;101642.44;4895166;28;49812;-62
2022/01/02 09:17:38;;;;;;;;;14.25;11.25;;;;;12.47;69.02;101645.25;4895600;28;49826;-63
2022/01/02 09:20:05;;;;;;;;;11.00;11.00;;;;;12.45;68.92;101647.84;4895201;28;49814;-62
2022/01/02 09:22:31;;;;;;;;;12.50;11.50;;;;;12.35;69.27;101632.63;4898240;28;50126;-62
2022/01/02 09:24:56;;;;;;;;;11.75;10.50;;;;;12.38;69.07;101623.94;4894742;28;50442;-63
2022/01/02 09:27:22;;;;;;;;;12.75;11.75;;;;;12.31;69.37;101622.88;4895668;28;49699;-63
2022/01/02 09:29:47;;;;;;;;;14.25;13.50;;;;;12.37;69.31;101619.53;4894580;29;50844;-62
2022/01/02 09:32:13;;;;;;;;;11.25;10.75;;;;;12.47;69.36;101645.25;4894708;29;49820;-71
2022/01/02 09:34:38;;;;;;;;;11.50;9.25;;;;;12.56;69.11;101648.13;4909628;28;49673;-65
2022/01/02 09:37:04;;;;;;;;;16.50;11.50;;;;;12.45;69.43;101620.59;4895103;28;49799;-68
2022/01/02 09:39:30;;;;;;;;;13.25;9.50;;;;;12.48;69.12;101621.59;4893995;29;51109;-70
2022/01/02 09:41:55;;;;;;;;;13.00;10.50;;;;;12.50;69.34;101611.09;4894811;28;49828;-71
2022/01/02 09:44:21;;;;;;;;;11.25;10.75;;;;;12.49;69.15;101596.13;4894987;28;49988;-70
2022/01/02 09:46:53;;;;;;;;;11.25;11.25;;;;;12.72;68.78;101623.06;4892222;29;50082;-68
2022/01/02 09:49:22;;;;;;;;;17.00;13.75;;;;;12.60;68.42;101590.28;4887699;29;49847;-71
2022/01/02 09:51:47;;;;;;;;;12.50;10.50;;;;;12.70;69.08;101601.97;4885628;29;49874;-71
2022/01/02 09:54:13;;;;;;;;;10.00;10.00;;;;;13.06;68.81;101654.69;4893700;28;49965;-69
2022/01/02 09:56:39;;;;;;;;;13.50;12.25;;;;;12.97;68.31;101611.41;4894675;28;49955;-68
2022/01/02 09:59:04;;;;;;;;;10.75;10.75;;;;;13.23;68.19;101649.88;4894707;28;50992;-66
2022/01/02 10:01:33;;;;;;;;;7.50;7.50;;;;;13.01;68.03;101600.06;4894625;29;49717;-68
2022/01/02 10:03:59;;;;;;;;;9.50;8.75;;;;;13.35;67.86;101655.44;4894613;28;49807;-66
2022/01/02 10:06:47;;;;;;;;;10.75;10.25;;;;;13.02;67.68;101591.31;4895068;29;50078;-65
2022/01/02 10:09:31;;;;;;;;;10.00;10.00;;;;;13.49;67.10;101654.84;4894339;28;50264;-66
2022/01/02 10:12:26;;;;;;;;;9.00;9.00;;;;;13.57;66.66;101658.56;4894323;28;49837;-67
2022/01/02 10:15:11;;;;;;;;;11.75;11.25;;;;;13.70;67.13;101658.91;4894415;29;49803;-66
2022/01/02 10:17:59;;;;;;;;;7.75;7.75;;;;;13.45;66.38;101599.41;4895874;29;49744;-65
2022/01/02 10:20:35;;;;;;;;;9.75;7.25;;;;;13.94;66.51;101650.59;4896494;29;50465;-66
2022/01/02 10:23:19;;;;;;;;;9.25;6.25;;;;;14.01;65.85;101649.88;4882482;29;49714;-67
2022/01/02 10:25:50;;;;;;;;;11.75;8.75;;;;;14.18;65.65;101642.28;4888846;28;49780;-72
2022/01/02 10:28:36;;;;;;;;;10.50;8.25;;;;;14.32;65.32;101647.84;4892637;28;50276;-68
2022/01/02 10:31:11;;;;;;;;;4.25;4.25;;;;;14.14;65.08;101599.97;4893842;28;50478;-76
2022/01/02 10:33:51;;;;;;;;;6.25;5.50;;;;;14.01;64.68;101567.16;4893065;28;49703;-78
2022/01/02 10:36:27;;;;;;;;;6.25;6.25;;;;;14.52;64.12;101649.16;4892753;28;49746;-88
2022/01/02 10:39:14;;;;;;;;;8.50;6.50;;;;;14.62;64.13;101652.84;4892985;28;49758;-80
2022/01/02 10:41:43;;;;;;;;;7.00;5.00;;;;;13.82;63.88;101538.63;4889009;28;51975;-76
2022/01/02 10:44:29;;;;;;;;;4.50;3.50;;;;;14.68;63.71;101642.41;4873960;29;50013;-81
2022/01/02 10:47:15;;;;;;;;;4.75;4.50;;;;;14.72;63.37;101635.41;4887051;29;49876;-66
2022/01/02 10:49:50;;;;;;;;;6.00;4.00;;;;;14.73;63.43;101613.41;4894224;28;49870;-74
2022/01/02 10:52:24;;;;;;;;;4.25;3.25;;;;;14.82;62.80;101638.25;4896387;28;50134;-73
2022/01/02 10:54:49;;;;;;;;;2.00;0.25;;;;;14.47;62.84;101576.84;4893693;29;49893;-76
2022/01/02 10:57:15;;;;;;;;;3.00;3.00;;;;;14.85;62.77;101634.75;4894852;28;49684;-69
2022/01/02 10:59:43;;;;;;;;;5.00;3.25;;;;;14.81;62.69;101630.28;4892796;29;49729;-69
2022/01/02 11:02:11;;;;;;;;;2.75;2.00;;;;;14.86;62.85;101631.25;4893913;28;50838;-67
2022/01/02 11:04:37;;;;;;;;;3.50;2.50;;;;;14.93;62.34;101649.00;4890568;28;49766;-68
2022/01/02 11:07:04;;;;;;;;;3.00;2.50;;;;;14.44;62.13;101562.66;4875835;29;49745;-65
2022/01/02 11:09:31;;;;;;;;;3.00;2.00;;;;;14.88;62.59;101646.28;4878465;29;49960;-65
2022/01/02 11:11:56;;;;;;;;;2.75;2.25;;;;;14.88;63.24;101648.94;4875199;29;49936;-67
2022/01/02 11:14:22;;;;;;;;;3.00;2.00;;;;;14.92;62.72;101641.03;4874062;29;49734;-64
2022/01/02 11:16:47;;;;;;;;;4.50;3.50;;;;;14.95;62.44;101643.72;4875787;29;50128;-64
2022/01/02 11:19:13;;;;;;;;;4.00;3.00;;;;;14.83;62.95;101607.41;4875754;29;49942;-65
2022/01/02 11:21:43;;;;;;;;;2.75;2.75;;;;;15.01;62.67;101628.88;4875557;29;50752;-68